createdAt,value
2024-01-15T00:00:12.878Z,21.85
2024-01-15T00:02:39.646Z,21.17
2024-01-15T00:05:06.538Z,17.27
2024-01-15T00:07:33.262Z,21.63
2024-01-15T00:09:59.938Z,16.27
2024-01-15T00:12:26.672Z,17.98
2024-01-15T00:14:53.400Z,19.10
2024-01-15T00:17:20.146Z,19.98
2024-01-15T00:19:47.000Z,21.02
2024-01-15T00:22:13.731Z,19.75
2024-01-15T00:24:40.540Z,19.55
2024-01-15T00:27:07.405Z,23.33
2024-01-15T00:29:34.117Z,30.42
2024-01-15T00:32:00.835Z,27.92
2024-01-15T00:34:27.697Z,33.60
2024-01-15T00:36:55.077Z,31.77
2024-01-15T00:39:21.820Z,30.77
2024-01-15T00:41:48.553Z,29.92
2024-01-15T00:44:15.259Z,28.58
2024-01-15T00:46:46.827Z,28.00
2024-01-15T00:49:14.807Z,29.50
2024-01-15T00:51:42.096Z,30.40
2024-01-15T00:54:09.428Z,25.15
2024-01-15T00:56:36.312Z,28.02
2024-01-15T00:59:03.159Z,35.58
2024-01-15T01:01:29.912Z,36.53
2024-01-15T01:03:57.264Z,37.78
2024-01-15T01:06:24.101Z,38.83
2024-01-15T01:08:50.855Z,34.25
2024-01-15T01:11:17.617Z,36.22
2024-01-15T01:13:44.477Z,33.95
2024-01-15T01:16:11.217Z,37.22
2024-01-15T01:18:38.179Z,34.88
2024-01-15T01:21:05.155Z,33.58
2024-01-15T01:23:31.939Z,34.83
2024-01-15T01:25:58.705Z,36.97
2024-01-15T01:28:25.430Z,32.95
2024-01-15T01:30:52.350Z,35.40
2024-01-15T01:33:19.360Z,30.38
2024-01-15T01:35:46.643Z,36.45
2024-01-15T01:38:13.806Z,33.78
2024-01-15T01:40:40.522Z,36.60
2024-01-15T01:43:07.374Z,31.05
2024-01-15T01:45:34.223Z,35.47
2024-01-15T01:48:02.186Z,28.13
2024-01-15T01:50:30.895Z,32.28
2024-01-15T01:52:57.588Z,35.95
2024-01-15T01:55:25.955Z,34.63
2024-01-15T01:57:52.882Z,31.42
2024-01-15T02:00:19.738Z,38.22
2024-01-15T02:02:46.570Z,35.65
2024-01-15T02:05:14.486Z,37.17
2024-01-15T02:07:42.224Z,44.80
2024-01-15T02:10:09.203Z,31.30
2024-01-15T02:12:36.570Z,38.58
2024-01-15T02:15:03.572Z,34.40
2024-01-15T02:17:30.356Z,25.42
2024-01-15T02:19:57.255Z,30.50
2024-01-15T02:22:23.987Z,34.90
2024-01-15T02:24:50.753Z,35.55
2024-01-15T02:27:18.024Z,33.05
2024-01-15T02:29:44.758Z,29.35
2024-01-15T02:32:11.518Z,37.17
2024-01-15T02:34:38.356Z,31.88
2024-01-15T02:37:05.441Z,41.63
2024-01-15T02:39:32.278Z,38.88
2024-01-15T02:41:59.019Z,38.22
2024-01-15T02:44:25.803Z,37.85
2024-01-15T02:46:52.459Z,36.85
2024-01-15T02:49:19.428Z,37.47
2024-01-15T02:51:46.475Z,33.80
2024-01-15T02:54:13.370Z,38.50
2024-01-15T02:56:40.043Z,32.33
2024-01-15T02:59:06.800Z,30.10
2024-01-15T03:01:33.555Z,30.90
2024-01-15T03:04:00.494Z,39.75
2024-01-15T03:06:27.297Z,36.83
2024-01-15T03:08:53.996Z,34.92
2024-01-15T03:11:20.671Z,38.53
2024-01-15T03:13:47.392Z,36.85
2024-01-15T03:16:14.118Z,38.45
2024-01-15T03:18:41.000Z,35.72
2024-01-15T03:21:07.781Z,36.38
2024-01-15T03:23:34.576Z,36.30
2024-01-15T03:26:01.511Z,33.03
2024-01-15T03:28:28.196Z,28.70
2024-01-15T03:30:54.940Z,32.88
2024-01-15T03:33:22.469Z,34.33
2024-01-15T03:35:49.267Z,29.90
2024-01-15T03:38:15.942Z,31.23
2024-01-15T03:40:42.895Z,29.65
2024-01-15T03:43:09.802Z,30.58
2024-01-15T03:45:36.591Z,27.80
2024-01-15T03:48:03.443Z,35.10
2024-01-15T03:50:30.244Z,28.60
2024-01-15T03:52:56.951Z,26.17
2024-01-15T03:55:23.616Z,30.33
2024-01-15T03:57:50.376Z,24.75
2024-01-15T04:00:18.952Z,23.05
2024-01-15T04:02:45.762Z,25.10
2024-01-15T04:05:12.524Z,27.73
2024-01-15T04:07:39.214Z,28.13
2024-01-15T04:10:07.031Z,31.13
2024-01-15T04:12:33.761Z,31.90
2024-01-15T04:15:00.486Z,28.00
2024-01-15T04:17:28.259Z,29.42
2024-01-15T04:19:55.000Z,29.80
2024-01-15T04:22:21.778Z,28.50
2024-01-15T04:24:48.536Z,25.35
2024-01-15T04:27:15.426Z,25.65
2024-01-15T04:29:42.297Z,25.05
2024-01-15T04:32:09.053Z,29.60
2024-01-15T04:34:36.010Z,33.50
2024-01-15T04:37:03.145Z,29.98
2024-01-15T04:39:30.383Z,27.60
2024-01-15T04:41:57.154Z,27.27
2024-01-15T04:44:24.063Z,28.98
2024-01-15T04:46:50.758Z,30.27
2024-01-15T04:49:17.602Z,27.70
2024-01-15T04:51:44.387Z,25.63
2024-01-15T04:54:11.311Z,29.45
2024-01-15T04:56:38.330Z,27.55
2024-01-15T04:59:05.090Z,25.42
2024-01-15T05:01:35.138Z,25.05
2024-01-15T05:04:02.207Z,28.52
2024-01-15T05:06:29.407Z,30.83
2024-01-15T05:08:56.122Z,26.73
2024-01-15T05:11:22.938Z,37.50
2024-01-15T05:13:49.666Z,40.10
2024-01-15T05:16:16.308Z,42.50
2024-01-15T05:18:44.653Z,48.15
2024-01-15T05:21:11.490Z,41.60
2024-01-15T05:23:38.293Z,48.88
2024-01-15T05:26:05.264Z,55.55
2024-01-15T05:28:32.002Z,53.15
2024-01-15T05:30:58.776Z,63.38
2024-01-15T05:33:25.734Z,53.88
2024-01-15T05:35:52.553Z,51.22
2024-01-15T05:38:19.232Z,55.42
2024-01-15T05:40:45.968Z,59.03
2024-01-15T05:43:12.639Z,58.00
2024-01-15T05:45:45.061Z,58.85
2024-01-15T05:48:12.692Z,58.13
2024-01-15T05:50:39.822Z,56.53
2024-01-15T05:53:06.524Z,54.95
2024-01-15T05:55:33.184Z,45.90
2024-01-15T05:57:59.891Z,50.40
2024-01-15T06:00:26.825Z,48.00
2024-01-15T06:02:53.866Z,61.17
2024-01-15T06:05:20.624Z,49.97
2024-01-15T06:07:47.334Z,50.55
2024-01-15T06:10:14.043Z,49.05
2024-01-15T06:12:40.765Z,64.90
2024-01-15T06:15:07.701Z,50.13
2024-01-15T06:17:34.614Z,45.60
2024-01-15T06:20:01.443Z,39.10
2024-01-15T06:22:28.219Z,43.90
2024-01-15T06:24:55.061Z,46.63
2024-01-15T06:27:21.813Z,55.22
2024-01-15T06:29:50.687Z,54.45
2024-01-15T06:32:18.076Z,53.60
2024-01-15T06:34:44.926Z,56.42
2024-01-15T06:37:11.782Z,49.05
2024-01-15T06:39:38.529Z,56.10
2024-01-15T06:42:05.580Z,50.47
2024-01-15T06:44:32.306Z,54.30
2024-01-15T06:47:03.564Z,49.28
2024-01-15T06:49:30.901Z,38.15
2024-01-15T06:51:58.086Z,46.35
2024-01-15T06:54:25.039Z,46.38
2024-01-15T06:56:51.874Z,54.63
2024-01-15T06:59:20.382Z,40.33
2024-01-15T07:01:47.788Z,42.30
2024-01-15T07:04:14.662Z,45.72
2024-01-15T07:06:41.488Z,69.28
2024-01-15T07:09:09.421Z,56.65
2024-01-15T07:11:36.389Z,62.10
2024-01-15T07:14:03.123Z,69.95
2024-01-15T07:16:37.007Z,66.65
2024-01-15T07:19:05.778Z,62.20
2024-01-15T07:21:32.803Z,61.03
2024-01-15T07:23:59.619Z,57.33
2024-01-15T07:26:26.617Z,65.38
2024-01-15T07:28:53.554Z,79.00
2024-01-15T07:31:20.535Z,97.20
2024-01-15T07:33:48.068Z,76.82
2024-01-15T07:36:15.863Z,70.47
2024-01-15T07:38:42.549Z,60.88
2024-01-15T07:41:09.410Z,68.47
2024-01-15T07:43:37.245Z,62.80
2024-01-15T07:46:04.352Z,87.15
2024-01-15T07:48:31.244Z,45.28
2024-01-15T07:50:58.035Z,50.05
2024-01-15T07:53:24.842Z,52.85
2024-01-15T07:55:51.550Z,56.83
2024-01-15T07:58:18.330Z,50.35
2024-01-15T08:00:45.826Z,50.83
2024-01-15T08:03:14.275Z,57.95
2024-01-15T08:05:41.158Z,54.03
2024-01-15T08:08:07.863Z,53.10
2024-01-15T08:10:34.608Z,52.10
2024-01-15T08:13:01.367Z,47.30
2024-01-15T08:15:31.123Z,53.10
2024-01-15T08:17:58.827Z,64.43
2024-01-15T08:20:25.923Z,57.42
2024-01-15T08:22:52.740Z,60.33
2024-01-15T08:25:19.504Z,50.22
2024-01-15T08:27:46.352Z,63.17
2024-01-15T08:30:13.704Z,66.43
2024-01-15T08:32:43.564Z,71.60
2024-01-15T08:35:10.907Z,70.88
2024-01-15T08:37:39.161Z,57.53
2024-01-15T08:40:06.261Z,59.45
2024-01-15T08:42:32.997Z,65.00
2024-01-15T08:44:59.749Z,90.70
2024-01-15T08:47:27.237Z,84.35
2024-01-15T08:49:54.329Z,67.22
2024-01-15T08:52:22.290Z,73.40
2024-01-15T08:54:49.396Z,56.67
2024-01-15T08:57:16.200Z,62.60
2024-01-15T08:59:43.251Z,74.72
2024-01-15T09:02:09.927Z,67.07
2024-01-15T09:04:36.724Z,69.57
2024-01-15T09:07:03.585Z,61.25
2024-01-15T09:09:30.492Z,59.53
2024-01-15T09:11:57.373Z,68.78
2024-01-15T09:14:33.348Z,58.33
2024-01-15T09:17:05.972Z,62.47
2024-01-15T09:19:33.037Z,71.47
2024-01-15T09:21:59.866Z,59.92
2024-01-15T09:24:28.232Z,51.95
2024-01-15T09:29:22.317Z,53.35
2024-01-15T09:31:49.278Z,38.15
2024-01-15T09:34:16.202Z,34.13
2024-01-15T09:36:43.733Z,33.95
2024-01-15T09:39:12.366Z,32.33
2024-01-15T09:41:39.523Z,37.38
2024-01-15T09:44:06.509Z,32.50
2024-01-15T09:46:34.129Z,31.73
2024-01-15T09:49:02.023Z,42.08
2024-01-15T09:51:32.640Z,46.75
2024-01-15T09:53:59.620Z,54.83
2024-01-15T09:56:26.319Z,46.15
2024-01-15T09:58:54.151Z,31.27
2024-01-15T10:01:24.661Z,35.70
2024-01-15T10:03:52.046Z,32.97
2024-01-15T10:06:22.520Z,29.83
2024-01-15T10:08:51.744Z,21.92
2024-01-15T10:11:18.603Z,23.85
2024-01-15T10:13:46.584Z,35.85
2024-01-15T10:16:14.024Z,33.33
2024-01-15T10:18:41.248Z,29.77
2024-01-15T10:21:08.547Z,31.38
2024-01-15T10:23:35.381Z,35.20
2024-01-15T10:26:02.237Z,29.20
2024-01-15T10:28:30.782Z,28.27
2024-01-15T10:31:00.406Z,22.52
2024-01-15T10:33:27.791Z,27.60
2024-01-15T10:35:56.378Z,31.95
2024-01-15T10:38:23.970Z,21.92
2024-01-15T10:40:57.794Z,26.67
2024-01-15T10:43:28.160Z,17.00
2024-01-15T10:45:56.421Z,23.33
2024-01-15T10:48:23.380Z,17.17
2024-01-15T10:50:50.132Z,14.90
2024-01-15T10:53:18.658Z,18.15
2024-01-15T10:55:46.234Z,17.38
2024-01-15T10:58:13.938Z,21.48
2024-01-15T11:00:40.756Z,23.15
2024-01-15T11:03:07.987Z,23.98
2024-01-15T11:05:44.636Z,20.58
2024-01-15T11:08:14.948Z,19.33
2024-01-15T11:10:43.986Z,22.67
2024-01-15T11:13:14.991Z,13.75
2024-01-15T11:16:05.246Z,14.75
2024-01-15T11:18:42.651Z,14.13
2024-01-15T11:21:18.566Z,15.07
2024-01-15T11:23:52.604Z,16.63
2024-01-15T11:26:39.269Z,16.00
2024-01-15T11:29:11.589Z,20.40
2024-01-15T11:31:41.694Z,15.80
2024-01-15T11:34:09.924Z,15.35
2024-01-15T11:36:55.126Z,24.55
2024-01-15T11:39:28.108Z,17.85
2024-01-15T11:41:58.733Z,15.43
2024-01-15T11:44:25.520Z,13.82
2024-01-15T11:47:06.213Z,14.13
2024-01-15T11:49:41.994Z,16.20
2024-01-15T11:52:12.601Z,22.30
2024-01-15T11:54:39.921Z,16.05
2024-01-15T11:57:11.604Z,18.48
2024-01-15T11:59:38.412Z,15.65
2024-01-15T12:02:05.283Z,16.80
2024-01-15T12:04:31.970Z,12.60
2024-01-15T12:06:58.745Z,15.07
2024-01-15T12:09:25.591Z,13.45
2024-01-15T12:11:56.690Z,20.45
2024-01-15T12:14:23.672Z,13.82
2024-01-15T12:16:50.781Z,17.48
2024-01-15T12:19:17.654Z,13.40
2024-01-15T12:21:44.408Z,14.25
2024-01-15T12:24:11.269Z,16.13
2024-01-15T12:26:38.047Z,18.02
2024-01-15T12:29:07.934Z,16.00
2024-01-15T12:31:34.814Z,14.40
2024-01-15T12:34:03.162Z,14.20
2024-01-15T12:36:32.726Z,18.35
2024-01-15T12:39:02.152Z,15.43
2024-01-15T12:41:28.898Z,16.23
2024-01-15T12:43:55.578Z,21.40
2024-01-15T12:46:22.235Z,20.92
2024-01-15T12:48:49.203Z,21.02
2024-01-15T12:51:16.737Z,13.50
2024-01-15T12:53:43.562Z,16.10
2024-01-15T12:56:10.214Z,17.50
2024-01-15T12:58:36.924Z,14.98
2024-01-15T13:01:03.964Z,18.52
2024-01-15T13:03:30.924Z,19.33
2024-01-15T13:05:57.773Z,20.83
2024-01-15T13:08:26.592Z,20.42
2024-01-15T13:10:57.262Z,27.33
2024-01-15T13:13:24.245Z,22.27
2024-01-15T13:15:51.170Z,22.35
2024-01-15T13:18:18.112Z,23.05
2024-01-15T13:20:44.816Z,26.50
2024-01-15T13:23:12.718Z,23.27
2024-01-15T13:25:39.757Z,22.67
2024-01-15T13:28:08.025Z,21.60
2024-01-15T13:30:35.135Z,20.35
2024-01-15T13:33:05.990Z,26.35
2024-01-15T13:35:32.926Z,21.90
2024-01-15T13:37:59.725Z,22.10
2024-01-15T13:40:26.413Z,22.23
2024-01-15T13:42:54.065Z,26.88
2024-01-15T13:45:39.547Z,26.10
2024-01-15T13:48:06.916Z,23.25
2024-01-15T13:50:33.652Z,26.60
2024-01-15T13:53:00.340Z,26.70
2024-01-15T13:55:27.101Z,26.73
2024-01-15T13:57:53.817Z,31.05
2024-01-15T14:00:21.351Z,28.67
2024-01-15T14:02:49.034Z,30.27
2024-01-15T14:05:15.872Z,22.45
2024-01-15T14:07:45.367Z,25.33
2024-01-15T14:10:12.171Z,23.77
2024-01-15T14:12:38.987Z,19.02
2024-01-15T14:15:06.867Z,18.48
2024-01-15T14:17:33.851Z,25.17
2024-01-15T14:20:00.710Z,25.77
2024-01-15T14:22:27.578Z,18.67
2024-01-15T14:24:55.424Z,14.63
2024-01-15T14:27:22.886Z,22.02
2024-01-15T14:29:49.625Z,26.15
2024-01-15T14:32:16.395Z,23.90
2024-01-15T14:34:43.168Z,32.80
2024-01-15T14:37:10.080Z,26.42
2024-01-15T14:39:37.172Z,25.02
2024-01-15T14:44:48.451Z,28.63
2024-01-15T14:47:15.126Z,35.40
2024-01-15T14:49:41.916Z,37.35
2024-01-15T14:52:08.954Z,32.63
2024-01-15T14:54:36.176Z,30.30
2024-01-15T14:57:02.899Z,26.33
2024-01-15T14:59:30.955Z,27.05
2024-01-15T15:01:58.281Z,29.05
2024-01-15T15:04:25.149Z,26.63
2024-01-15T15:06:51.938Z,23.92
2024-01-15T15:09:18.796Z,24.05
2024-01-15T15:11:45.506Z,15.20
2024-01-15T15:14:12.214Z,17.60
2024-01-15T15:16:38.917Z,22.23
2024-01-15T15:19:05.841Z,18.60
2024-01-15T15:21:32.614Z,20.30
2024-01-15T15:23:59.586Z,20.90
2024-01-15T15:26:26.472Z,29.95
2024-01-15T15:28:53.190Z,33.70
2024-01-15T15:31:19.869Z,35.78
2024-01-15T15:33:46.766Z,38.80
2024-01-15T15:36:13.571Z,43.25
2024-01-15T15:38:40.325Z,39.72
2024-01-15T15:41:07.101Z,36.83
2024-01-15T15:43:33.862Z,33.13
2024-01-15T15:46:02.411Z,33.85
2024-01-15T15:48:29.440Z,66.53
2024-01-15T15:51:01.151Z,39.10
2024-01-15T15:53:28.057Z,37.10
2024-01-15T15:55:54.871Z,41.75
2024-01-15T15:58:21.814Z,37.70
2024-01-15T16:00:48.645Z,31.63
2024-01-15T16:03:15.628Z,36.53
2024-01-15T16:05:49.626Z,28.73
2024-01-15T16:08:19.796Z,27.15
2024-01-15T16:10:47.712Z,29.98
2024-01-15T16:13:15.171Z,38.45
2024-01-15T16:15:42.076Z,29.13
2024-01-15T16:23:19.008Z,26.77
2024-01-15T16:23:33.425Z,23.42
2024-01-15T16:24:08.103Z,24.55
2024-01-15T16:26:29.276Z,23.48
2024-01-15T16:28:58.018Z,27.35
2024-01-15T16:31:25.641Z,25.83
2024-01-15T16:33:55.589Z,21.77
2024-01-15T16:36:26.299Z,21.33
2024-01-15T16:38:53.461Z,19.38
2024-01-15T16:41:20.237Z,31.90
2024-01-15T16:43:47.700Z,49.05
2024-01-15T16:46:14.413Z,49.20
2024-01-15T16:48:41.289Z,38.72
2024-01-15T16:51:08.171Z,53.78
2024-01-15T16:53:35.016Z,34.05
2024-01-15T16:56:01.892Z,50.05
2024-01-15T16:58:28.666Z,53.63
2024-01-15T17:00:55.360Z,42.00
2024-01-15T17:03:22.103Z,31.27
2024-01-15T17:05:48.957Z,33.35
2024-01-15T17:08:15.742Z,38.53
2024-01-15T17:10:42.520Z,30.08
2024-01-15T17:13:10.245Z,25.50
2024-01-15T17:15:38.219Z,38.97
2024-01-15T17:18:05.413Z,27.60
2024-01-15T17:20:32.373Z,32.67
2024-01-15T17:22:59.440Z,24.33
2024-01-15T17:25:26.186Z,29.08
2024-01-15T17:27:53.091Z,29.17
2024-01-15T17:30:19.906Z,31.63
2024-01-15T17:32:46.671Z,22.50
2024-01-15T17:35:13.444Z,23.10
2024-01-15T17:37:40.539Z,24.50
2024-01-15T17:40:08.020Z,23.23
2024-01-15T17:42:34.725Z,34.05
2024-01-15T17:45:01.494Z,20.58
2024-01-15T17:47:28.241Z,19.50
2024-01-15T17:49:55.371Z,14.27
2024-01-15T17:52:23.448Z,20.20
2024-01-15T17:54:51.635Z,17.52
2024-01-15T17:57:18.305Z,33.58
2024-01-15T17:59:45.287Z,21.90
2024-01-15T18:02:12.664Z,27.27
2024-01-15T18:04:43.890Z,32.88
2024-01-15T18:07:10.575Z,32.05
2024-01-15T18:09:37.287Z,25.42
2024-01-15T18:12:04.325Z,29.05
2024-01-15T18:14:31.266Z,21.55
2024-01-15T18:16:58.329Z,30.70
2024-01-15T18:19:25.108Z,26.42
2024-01-15T18:21:51.935Z,19.45
2024-01-15T18:24:18.635Z,43.22
2024-01-15T18:26:45.331Z,32.65
2024-01-15T18:29:12.063Z,28.48
2024-01-15T18:31:38.810Z,38.75
2024-01-15T18:34:05.546Z,42.78
2024-01-15T18:36:32.256Z,21.58
2024-01-15T18:39:06.798Z,23.55
2024-01-15T18:41:33.968Z,28.15
2024-01-15T18:44:00.825Z,25.83
2024-01-15T18:46:27.641Z,24.52
2024-01-15T18:48:54.812Z,23.40
2024-01-15T18:51:24.803Z,25.02
2024-01-15T18:53:52.093Z,20.70
2024-01-15T18:56:19.027Z,21.92
2024-01-15T18:58:45.826Z,19.33
2024-01-15T19:01:14.558Z,22.85
2024-01-15T19:03:41.401Z,18.95
2024-01-15T19:06:08.172Z,23.75
2024-01-15T19:08:35.135Z,21.38
2024-01-15T19:11:02.261Z,25.95
2024-01-15T19:13:28.986Z,20.98
2024-01-15T19:15:56.766Z,27.42
2024-01-15T19:18:23.609Z,19.60
2024-01-15T19:20:50.461Z,19.35
2024-01-15T19:23:17.156Z,18.52
2024-01-15T19:25:43.982Z,17.23
2024-01-15T19:28:10.673Z,26.50
2024-01-15T19:30:37.399Z,22.92
2024-01-15T19:33:04.687Z,19.50
2024-01-15T19:35:31.616Z,20.25
2024-01-15T19:37:58.429Z,19.80
2024-01-15T19:40:25.145Z,22.10
2024-01-15T19:42:51.846Z,23.80
2024-01-15T19:45:18.605Z,22.63
2024-01-15T19:47:45.409Z,25.58
2024-01-15T19:50:12.460Z,25.83
2024-01-15T19:52:39.279Z,30.13
2024-01-15T19:55:07.131Z,33.25
2024-01-15T19:57:33.775Z,25.80
2024-01-15T20:00:00.874Z,25.42
2024-01-15T20:02:27.623Z,19.88
2024-01-15T20:04:54.350Z,25.13
2024-01-15T20:07:21.082Z,22.77
2024-01-15T20:09:47.770Z,27.83
2024-01-15T20:12:14.440Z,25.27
2024-01-15T20:14:41.130Z,25.42
2024-01-15T20:17:07.942Z,28.08
2024-01-15T20:19:35.281Z,26.58
2024-01-15T20:22:02.102Z,24.35
2024-01-15T20:24:28.808Z,33.17
2024-01-15T20:26:56.576Z,30.75
2024-01-15T20:29:23.303Z,23.85
2024-01-15T20:31:50.762Z,24.02
2024-01-15T20:34:17.846Z,27.83
2024-01-15T20:36:44.642Z,21.10
2024-01-15T20:39:11.360Z,21.75
2024-01-15T20:41:38.233Z,19.67
2024-01-15T20:44:05.288Z,15.95
2024-01-15T20:46:31.952Z,25.45
2024-01-15T20:48:58.869Z,19.77
2024-01-15T20:51:25.653Z,18.35
2024-01-15T20:53:52.406Z,29.40
2024-01-15T20:56:19.164Z,24.98
2024-01-15T20:58:46.045Z,19.70
2024-01-15T21:01:12.851Z,22.60
2024-01-15T21:03:39.821Z,26.98
2024-01-15T21:06:06.907Z,20.42
2024-01-15T21:08:33.985Z,19.38
2024-01-15T21:11:01.158Z,20.98
2024-01-15T21:13:27.949Z,23.33
2024-01-15T21:15:54.649Z,27.23
2024-01-15T21:18:21.555Z,26.33
2024-01-15T21:20:48.835Z,20.17
2024-01-15T21:23:15.756Z,25.08
2024-01-15T21:25:42.738Z,21.38
2024-01-15T21:28:10.885Z,21.48
2024-01-15T21:30:37.702Z,23.88
2024-01-15T21:33:06.319Z,19.88
2024-01-15T21:35:33.777Z,17.55
2024-01-15T21:38:00.911Z,18.80
2024-01-15T21:40:27.752Z,21.20
2024-01-15T21:42:55.568Z,25.10
2024-01-15T21:45:22.377Z,16.50
2024-01-15T21:47:49.281Z,14.65
2024-01-15T21:50:16.239Z,17.75
2024-01-15T21:52:43.123Z,19.33
2024-01-15T21:55:10.953Z,18.33
2024-01-15T21:57:37.812Z,18.13
2024-01-15T22:00:08.509Z,19.17
2024-01-15T22:02:40.920Z,18.20
2024-01-15T22:05:09.697Z,16.35
2024-01-15T22:07:44.042Z,14.73
2024-01-15T22:10:11.333Z,19.85
2024-01-15T22:12:38.037Z,17.50
2024-01-15T22:15:04.984Z,17.67
2024-01-15T22:17:32.168Z,19.20
2024-01-15T22:19:59.008Z,19.20
2024-01-15T22:22:25.783Z,17.08
2024-01-15T22:24:52.489Z,15.57
2024-01-15T22:27:19.186Z,19.95
2024-01-15T22:29:48.366Z,18.63
2024-01-15T22:32:15.205Z,14.80
2024-01-15T22:34:41.940Z,13.43
2024-01-15T22:37:08.591Z,13.15
2024-01-15T22:39:35.343Z,13.85
2024-01-15T22:42:02.060Z,16.27
2024-01-15T22:44:29.010Z,18.48
2024-01-15T22:46:55.752Z,12.70
2024-01-15T22:49:23.378Z,11.05
2024-01-15T22:51:50.190Z,13.70
2024-01-15T22:54:16.885Z,21.17
2024-01-15T22:56:43.625Z,16.70
2024-01-15T22:59:10.434Z,12.77
2024-01-15T23:01:37.225Z,14.15
2024-01-15T23:04:05.900Z,14.63
2024-01-15T23:06:32.594Z,13.52
2024-01-15T23:08:59.325Z,15.27
2024-01-15T23:11:26.173Z,11.93
2024-01-15T23:13:53.982Z,13.73
2024-01-15T23:16:20.912Z,12.90
2024-01-15T23:18:47.737Z,11.13
2024-01-15T23:21:14.640Z,13.43
2024-01-15T23:23:41.516Z,9.70
2024-01-15T23:26:10.314Z,10.23
2024-01-15T23:28:38.369Z,11.60
2024-01-15T23:31:06.049Z,10.25
2024-01-15T23:33:33.488Z,9.90
2024-01-15T23:36:03.670Z,12.80
2024-01-15T23:38:30.564Z,15.93
2024-01-15T23:40:57.388Z,12.45
2024-01-15T23:43:24.118Z,13.48
2024-01-15T23:45:55.922Z,12.95
2024-01-15T23:48:26.559Z,17.83
2024-01-15T23:50:53.558Z,16.83
2024-01-15T23:53:20.441Z,13.57
2024-01-15T23:55:47.210Z,11.82
2024-01-15T23:58:13.937Z,14.48
